createdAt,value
2023-05-10T00:02:07.538Z,19.09
2023-05-10T00:05:10.514Z,19.07
2023-05-10T00:08:13.324Z,19.07
2023-05-10T00:11:16.060Z,19.01
2023-05-10T00:14:20.258Z,19.03
2023-05-10T00:17:23.091Z,19.01
2023-05-10T00:20:25.854Z,19.06
2023-05-10T00:23:28.687Z,19.08
2023-05-10T00:26:31.486Z,19.04
2023-05-10T00:29:35.610Z,19.06
2023-05-10T00:32:38.438Z,19.02
2023-05-10T00:35:41.451Z,19.00
2023-05-10T00:38:44.276Z,19.00
2023-05-10T00:41:47.045Z,19.05
2023-05-10T00:44:51.205Z,19.09
2023-05-10T00:47:56.329Z,18.99
2023-05-10T00:50:59.195Z,19.10
2023-05-10T00:54:02.320Z,18.96
2023-05-10T00:57:05.132Z,18.95
2023-05-10T01:00:10.813Z,18.94
2023-05-10T01:03:14.082Z,18.94
2023-05-10T01:06:17.025Z,18.97
2023-05-10T01:09:20.107Z,18.93
2023-05-10T01:12:23.058Z,18.94
2023-05-10T01:15:27.531Z,18.93
2023-05-10T01:18:31.644Z,18.92
2023-05-10T01:21:37.640Z,18.84
2023-05-10T01:25:04.256Z,18.88
2023-05-10T01:28:24.214Z,18.82
2023-05-10T01:31:41.469Z,18.84
2023-05-10T01:34:52.986Z,18.83
2023-05-10T01:38:03.460Z,18.84
2023-05-10T01:41:11.568Z,18.83
2023-05-10T01:44:19.600Z,18.86
2023-05-10T01:47:24.294Z,18.79
2023-05-10T01:50:31.354Z,18.81
2023-05-10T01:53:34.455Z,18.83
2023-05-10T01:56:39.974Z,18.94
2023-05-10T01:59:45.206Z,18.88
2023-05-10T02:02:49.625Z,18.86
2023-05-10T02:05:54.348Z,18.82
2023-05-10T02:08:57.283Z,18.85
2023-05-10T02:12:01.947Z,18.80
2023-05-10T02:15:06.668Z,18.81
2023-05-10T02:18:11.315Z,18.83
2023-05-10T02:21:16.512Z,18.81
2023-05-10T02:24:20.157Z,18.78
2023-05-10T02:27:23.233Z,18.80
2023-05-10T02:30:26.172Z,18.77
2023-05-10T02:33:29.603Z,18.75
2023-05-10T02:36:34.508Z,18.78
2023-05-10T02:39:37.469Z,18.78
2023-05-10T02:42:41.017Z,18.79
2023-05-10T02:45:45.329Z,18.81
2023-05-10T02:48:48.167Z,18.76
2023-05-10T02:51:53.763Z,18.75
2023-05-10T02:54:57.631Z,18.77
2023-05-10T02:58:02.312Z,18.79
2023-05-10T03:01:05.412Z,18.78
2023-05-10T03:04:08.328Z,18.76
2023-05-10T03:07:12.770Z,18.77
2023-05-10T03:10:15.721Z,18.78
2023-05-10T03:13:23.259Z,18.77
2023-05-10T03:16:29.403Z,18.73
2023-05-10T03:19:34.495Z,18.78
2023-05-10T03:22:40.097Z,18.81
2023-05-10T03:25:44.817Z,18.79
2023-05-10T03:28:47.951Z,18.76
2023-05-10T03:31:51.057Z,18.79
2023-05-10T03:34:53.880Z,18.78
2023-05-10T03:37:58.165Z,18.76
2023-05-10T03:41:00.942Z,18.76
2023-05-10T03:44:04.167Z,18.75
2023-05-10T03:47:07.317Z,18.79
2023-05-10T03:50:11.383Z,18.76
2023-05-10T03:53:15.620Z,18.79
2023-05-10T03:56:18.330Z,18.83
2023-05-10T03:59:21.194Z,18.85
2023-05-10T04:02:23.989Z,18.83
2023-05-10T04:05:26.946Z,18.81
2023-05-10T04:08:31.201Z,18.81
2023-05-10T04:11:34.065Z,18.82
2023-05-10T04:14:36.791Z,18.84
2023-05-10T04:17:39.629Z,18.90
2023-05-10T04:20:42.391Z,18.89
2023-05-10T04:23:46.514Z,18.97
2023-05-10T04:26:49.301Z,18.96
2023-05-10T04:29:52.321Z,19.01
2023-05-10T04:32:55.133Z,19.03
2023-05-10T04:35:58.087Z,19.02
2023-05-10T04:39:03.748Z,18.97
2023-05-10T04:42:07.368Z,19.07
2023-05-10T04:45:11.592Z,19.14
2023-05-10T04:48:14.591Z,19.13
2023-05-10T04:51:17.470Z,19.21
2023-05-10T04:54:21.619Z,19.22
2023-05-10T04:57:24.483Z,19.23
2023-05-10T05:00:27.359Z,19.25
2023-05-10T05:03:30.208Z,19.29
2023-05-10T05:06:33.110Z,19.43
2023-05-10T05:09:37.289Z,19.34
2023-05-10T05:12:40.126Z,19.33
2023-05-10T05:15:42.955Z,19.32
2023-05-10T05:18:45.711Z,19.34
2023-05-10T05:21:48.464Z,19.31
2023-05-10T05:24:52.657Z,19.43
2023-05-10T05:27:55.477Z,19.45
2023-05-10T05:30:58.228Z,19.47
2023-05-10T05:34:00.965Z,19.44
2023-05-10T05:37:03.758Z,19.41
2023-05-10T05:40:08.567Z,19.56
2023-05-10T05:43:11.363Z,19.63
2023-05-10T05:46:14.154Z,19.46
2023-05-10T05:49:17.089Z,19.58
2023-05-10T05:52:19.924Z,19.60
2023-05-10T05:55:25.172Z,19.64
2023-05-10T05:58:28.077Z,19.52
2023-05-10T06:01:30.823Z,19.49
2023-05-10T06:04:33.705Z,19.60
2023-05-10T06:07:36.541Z,19.63
2023-05-10T06:10:40.714Z,19.69
2023-05-10T06:13:43.926Z,19.59
2023-05-10T06:16:46.763Z,19.69
2023-05-10T06:19:49.629Z,19.71
2023-05-10T06:22:52.377Z,19.76
2023-05-10T06:25:56.574Z,19.72
2023-05-10T06:28:59.336Z,19.84
2023-05-10T06:32:02.354Z,19.75
2023-05-10T06:35:05.412Z,19.70
2023-05-10T06:38:08.202Z,19.69
2023-05-10T06:41:12.707Z,19.65
2023-05-10T06:44:15.645Z,19.69
2023-05-10T06:47:18.402Z,19.61
2023-05-10T06:50:21.249Z,19.64
2023-05-10T06:53:24.108Z,19.64
2023-05-10T06:56:28.198Z,19.66
2023-05-10T06:59:31.068Z,19.76
2023-05-10T07:02:34.056Z,19.68
2023-05-10T07:05:37.080Z,19.67
2023-05-10T07:08:39.909Z,19.63
2023-05-10T07:11:44.098Z,19.69
2023-05-10T07:14:46.901Z,19.78
2023-05-10T07:17:49.833Z,19.76
2023-05-10T07:20:52.945Z,19.68
2023-05-10T07:23:55.698Z,19.78
2023-05-10T07:26:59.889Z,19.91
2023-05-10T07:30:02.703Z,20.11
2023-05-10T07:33:05.551Z,19.99
2023-05-10T07:36:08.670Z,20.02
2023-05-10T07:39:14.404Z,20.02
2023-05-10T07:42:20.628Z,19.96
2023-05-10T07:45:24.009Z,19.96
2023-05-10T07:48:26.847Z,19.91
2023-05-10T07:51:29.715Z,19.95
2023-05-10T07:54:32.500Z,19.94
2023-05-10T07:57:36.826Z,19.92
2023-05-10T08:00:40.620Z,19.86
2023-05-10T08:03:43.506Z,19.88
2023-05-10T08:06:46.339Z,19.85
2023-05-10T08:09:49.059Z,19.89
2023-05-10T08:12:53.292Z,19.90
2023-05-10T08:15:56.106Z,19.92
2023-05-10T08:18:58.965Z,19.93
2023-05-10T08:22:01.855Z,19.87
2023-05-10T08:25:04.772Z,19.90
2023-05-10T08:28:09.978Z,19.93
2023-05-10T08:31:14.130Z,19.93
2023-05-10T08:34:16.908Z,19.94
2023-05-10T08:37:19.717Z,19.96
2023-05-10T08:40:22.714Z,19.97
2023-05-10T08:43:28.522Z,19.97
2023-05-10T08:46:33.177Z,19.98
2023-05-10T08:49:36.208Z,19.93
2023-05-10T08:52:40.855Z,19.94
2023-05-10T08:55:43.903Z,19.98
2023-05-10T08:58:48.190Z,19.98
2023-05-10T09:01:51.732Z,19.99
2023-05-10T09:04:54.598Z,20.04
2023-05-10T09:07:57.696Z,20.07
2023-05-10T09:11:02.530Z,20.03
2023-05-10T09:14:06.684Z,20.06
2023-05-10T09:17:09.845Z,20.17
2023-05-10T09:20:12.692Z,20.15
2023-05-10T09:23:15.466Z,20.17
2023-05-10T09:26:18.534Z,20.20
2023-05-10T09:29:22.704Z,20.18
2023-05-10T09:32:37.782Z,20.20
2023-05-10T09:35:41.248Z,20.23
2023-05-10T09:38:47.828Z,20.23
2023-05-10T09:41:50.623Z,20.24
2023-05-10T09:44:54.813Z,20.25
2023-05-10T09:47:57.950Z,20.24
2023-05-10T09:51:00.813Z,20.22
2023-05-10T09:54:13.568Z,20.26
2023-05-10T09:57:22.171Z,20.25
2023-05-10T10:00:26.305Z,20.26
2023-05-10T10:03:30.698Z,20.31
2023-05-10T10:06:37.541Z,20.16
2023-05-10T10:09:40.674Z,20.23
2023-05-10T10:12:43.706Z,20.25
2023-05-10T10:15:52.224Z,20.31
2023-05-10T10:18:55.391Z,20.61
2023-05-10T10:21:58.280Z,20.30
2023-05-10T10:25:01.212Z,20.31
2023-05-10T10:28:12.500Z,20.29
2023-05-10T10:31:20.284Z,20.25
2023-05-10T10:34:27.483Z,20.24
2023-05-10T10:37:43.473Z,20.27
2023-05-10T10:40:46.231Z,20.24
2023-05-10T10:43:48.969Z,20.21
2023-05-10T10:47:09.753Z,20.18
2023-05-10T10:50:14.740Z,20.18
2023-05-10T10:53:20.546Z,20.15
2023-05-10T10:56:25.330Z,20.12
2023-05-10T10:59:29.066Z,20.19
2023-05-10T11:02:36.231Z,20.20
2023-05-10T11:05:44.257Z,20.18
2023-05-10T11:08:47.154Z,20.18
2023-05-10T11:11:56.189Z,20.20
2023-05-10T11:14:59.592Z,20.21
2023-05-10T11:18:02.716Z,20.23
2023-05-10T11:21:07.133Z,20.25
2023-05-10T11:24:15.235Z,20.26
2023-05-10T11:27:18.033Z,20.32
2023-05-10T11:30:21.300Z,20.34
2023-05-10T11:33:24.111Z,20.34
2023-05-10T11:36:29.188Z,20.32
2023-05-10T11:39:32.865Z,20.31
2023-05-10T11:42:35.661Z,20.29
2023-05-10T11:45:38.827Z,20.33
2023-05-10T11:48:46.938Z,20.29
2023-05-10T11:51:51.049Z,20.29
2023-05-10T11:54:57.160Z,20.26
2023-05-10T11:58:03.014Z,20.32
2023-05-10T12:01:06.732Z,20.30
2023-05-10T12:04:09.876Z,20.32
2023-05-10T12:07:14.405Z,20.30
2023-05-10T12:10:18.782Z,20.29
2023-05-10T12:13:22.200Z,20.27
2023-05-10T12:16:25.798Z,20.29
2023-05-10T12:19:28.599Z,20.27
2023-05-10T12:22:35.983Z,20.25
2023-05-10T12:25:39.237Z,20.32
2023-05-10T12:28:41.961Z,20.31
2023-05-10T12:31:57.283Z,20.30
2023-05-10T12:34:59.970Z,20.29
2023-05-10T12:38:24.517Z,20.29
2023-05-10T12:41:27.258Z,20.30
2023-05-10T12:44:29.973Z,20.31
2023-05-10T12:47:32.695Z,20.35
2023-05-10T12:50:35.628Z,20.36
2023-05-10T12:53:41.409Z,20.38
2023-05-10T12:56:47.971Z,20.35
2023-05-10T12:59:50.867Z,20.38
2023-05-10T13:02:54.145Z,20.35
2023-05-10T13:05:56.871Z,20.39
2023-05-10T13:09:00.986Z,20.41
2023-05-10T13:12:03.991Z,20.37
2023-05-10T13:15:07.775Z,20.37
2023-05-10T13:18:10.715Z,20.34
2023-05-10T13:21:13.536Z,20.38
2023-05-10T13:24:18.052Z,20.37
2023-05-10T13:27:20.786Z,20.34
2023-05-10T13:30:24.844Z,20.34
2023-05-10T13:33:27.584Z,20.32
2023-05-10T13:36:30.336Z,20.33
2023-05-10T13:39:35.523Z,20.29
2023-05-10T13:42:38.570Z,20.30
2023-05-10T13:45:41.296Z,20.31
2023-05-10T13:48:43.992Z,20.31
2023-05-10T13:51:46.758Z,20.30
2023-05-10T13:54:52.993Z,20.30
2023-05-10T13:57:55.821Z,20.35
2023-05-10T14:01:00.714Z,20.29
2023-05-10T14:04:03.548Z,20.30
2023-05-10T14:07:06.790Z,20.32
2023-05-10T14:10:11.547Z,20.34
2023-05-10T14:13:14.428Z,20.30
2023-05-10T14:16:17.580Z,20.33
2023-05-10T14:19:20.389Z,20.32
2023-05-10T14:22:23.680Z,20.30
2023-05-10T14:25:27.811Z,20.26
2023-05-10T14:28:30.669Z,20.30
2023-05-10T14:31:33.695Z,20.30
2023-05-10T14:34:36.461Z,20.27
2023-05-10T14:37:39.253Z,20.24
2023-05-10T14:40:43.739Z,20.29
2023-05-10T14:43:46.999Z,20.29
2023-05-10T14:46:50.793Z,20.22
2023-05-10T14:49:53.651Z,20.21
2023-05-10T14:53:32.829Z,20.26
2023-05-10T14:56:38.386Z,20.27
2023-05-10T14:59:41.168Z,20.26
2023-05-10T15:02:44.751Z,20.23
2023-05-10T15:05:49.215Z,20.16
2023-05-10T15:08:52.673Z,20.23
2023-05-10T15:11:57.419Z,20.22
2023-05-10T15:15:00.254Z,20.25
2023-05-10T15:18:03.005Z,20.23
2023-05-10T15:21:05.699Z,20.21
2023-05-10T15:24:08.629Z,20.23
2023-05-10T15:27:12.654Z,20.22
2023-05-10T15:30:15.580Z,20.21
2023-05-10T15:33:18.305Z,20.25
2023-05-10T15:36:21.025Z,20.27
2023-05-10T15:39:23.845Z,20.22
2023-05-10T15:42:27.913Z,20.23
2023-05-10T15:45:30.754Z,20.20
2023-05-10T15:48:33.533Z,20.22
2023-05-10T15:51:36.825Z,20.21
2023-05-10T15:54:39.754Z,20.22
2023-05-10T15:57:44.924Z,20.20
2023-05-10T16:00:47.634Z,20.15
2023-05-10T16:03:50.562Z,20.16
2023-05-10T16:06:53.338Z,20.14
2023-05-10T16:09:56.161Z,20.14
2023-05-10T16:13:00.671Z,20.14
2023-05-10T16:16:03.508Z,20.10
2023-05-10T16:19:06.366Z,20.07
2023-05-10T16:22:09.215Z,20.10
2023-05-10T16:25:13.638Z,20.11
2023-05-10T16:28:19.596Z,20.11
2023-05-10T16:31:22.523Z,20.09
2023-05-10T16:34:25.537Z,20.08
2023-05-10T16:37:29.534Z,20.09
2023-05-10T16:40:34.142Z,20.03
2023-05-10T16:43:38.266Z,20.01
2023-05-10T16:46:41.073Z,20.06
2023-05-10T16:49:43.929Z,20.04
2023-05-10T16:52:47.313Z,19.99
2023-05-10T16:55:50.123Z,19.99
2023-05-10T16:58:54.194Z,19.95
2023-05-10T17:01:57.048Z,19.96
2023-05-10T17:04:59.918Z,19.95
2023-05-10T17:08:02.669Z,19.95
2023-05-10T17:11:05.672Z,19.94
2023-05-10T17:14:10.255Z,19.91
2023-05-10T17:17:13.099Z,19.91
2023-05-10T17:20:16.609Z,19.89
2023-05-10T17:23:19.461Z,19.87
2023-05-10T17:26:22.457Z,19.87
2023-05-10T17:29:26.643Z,19.92
2023-05-10T17:32:29.431Z,19.87
2023-05-10T17:35:34.290Z,19.89
2023-05-10T17:38:37.520Z,19.82
2023-05-10T17:41:40.320Z,19.83
2023-05-10T17:44:44.482Z,19.81
2023-05-10T17:47:47.285Z,19.81
2023-05-10T17:50:50.817Z,19.79
2023-05-10T17:53:53.925Z,19.81
2023-05-10T17:56:58.146Z,19.78
2023-05-10T18:00:03.977Z,19.81
2023-05-10T18:03:06.863Z,19.77
2023-05-10T18:06:12.627Z,19.82
2023-05-10T18:09:16.309Z,19.87
2023-05-10T18:12:19.155Z,19.85
2023-05-10T18:15:23.300Z,19.82
2023-05-10T18:18:26.140Z,19.83
2023-05-10T18:21:29.169Z,19.85
2023-05-10T18:24:38.235Z,19.84
2023-05-10T18:27:42.605Z,19.94
2023-05-10T18:30:46.779Z,19.73
2023-05-10T18:33:49.562Z,19.69
2023-05-10T18:36:52.530Z,19.66
2023-05-10T18:39:55.270Z,20.06
2023-05-10T18:42:58.348Z,19.96
2023-05-10T18:46:02.685Z,19.86
2023-05-10T18:49:06.610Z,19.90
2023-05-10T18:52:09.542Z,19.76
2023-05-10T18:55:12.366Z,19.61
2023-05-10T18:58:15.465Z,19.61
2023-05-10T19:01:19.641Z,19.61
2023-05-10T19:04:22.517Z,19.56
2023-05-10T19:07:25.240Z,19.58
2023-05-10T19:10:28.086Z,19.51
2023-05-10T19:13:30.862Z,19.51
2023-05-10T19:16:35.918Z,19.58
2023-05-10T19:19:38.735Z,19.51
2023-05-10T19:22:57.914Z,19.51
2023-05-10T19:26:05.843Z,19.49
2023-05-10T19:29:08.772Z,19.45
2023-05-10T19:32:13.435Z,19.45
2023-05-10T19:35:16.857Z,19.48
2023-05-10T19:38:21.487Z,19.45
2023-05-10T19:41:24.478Z,19.46
2023-05-10T19:44:27.382Z,19.45
2023-05-10T19:47:31.943Z,19.41
2023-05-10T19:50:34.746Z,19.42
2023-05-10T19:53:37.457Z,19.41
2023-05-10T19:56:40.277Z,19.37
2023-05-10T19:59:43.063Z,19.42
2023-05-10T20:02:47.247Z,19.35
2023-05-10T20:05:50.062Z,19.34
2023-05-10T20:08:52.854Z,19.44
2023-05-10T20:11:55.624Z,19.35
2023-05-10T20:14:58.471Z,19.32
2023-05-10T20:18:03.745Z,19.36
2023-05-10T20:21:06.598Z,19.33
2023-05-10T20:24:10.070Z,19.31
2023-05-10T20:27:12.882Z,19.29
2023-05-10T20:30:15.880Z,19.30
2023-05-10T20:33:20.268Z,19.29
2023-05-10T20:36:23.174Z,19.26
2023-05-10T20:39:25.953Z,19.29
2023-05-10T20:42:28.713Z,19.26
2023-05-10T20:45:31.568Z,19.29
2023-05-10T20:48:35.727Z,18.28
2023-05-10T20:51:38.557Z,17.57
2023-05-10T20:54:41.303Z,17.07
2023-05-10T20:57:44.244Z,16.68
2023-05-10T21:00:47.073Z,16.66
2023-05-10T21:04:26.377Z,16.21
2023-05-10T21:07:32.411Z,16.19
2023-05-10T21:10:35.180Z,15.95
2023-05-10T21:13:38.000Z,16.05
2023-05-10T21:16:40.859Z,15.97
2023-05-10T21:19:44.742Z,15.95
2023-05-10T21:22:49.026Z,16.11
2023-05-10T21:25:51.767Z,16.03
2023-05-10T21:28:54.592Z,16.07
2023-05-10T21:32:16.060Z,16.30
2023-05-10T21:35:19.060Z,16.39
2023-05-10T21:38:23.392Z,17.18
2023-05-10T21:41:26.708Z,18.19
2023-05-10T21:44:29.584Z,18.41
2023-05-10T21:47:32.432Z,18.47
2023-05-10T21:50:35.264Z,18.69
2023-05-10T21:53:40.575Z,18.75
2023-05-10T21:56:43.423Z,18.90
2023-05-10T21:59:46.196Z,18.93
2023-05-10T22:02:49.077Z,18.97
2023-05-10T22:05:51.942Z,19.03
2023-05-10T22:08:56.271Z,18.98
2023-05-10T22:11:59.075Z,19.01
2023-05-10T22:15:10.536Z,19.06
2023-05-10T22:18:13.895Z,19.03
2023-05-10T22:21:16.706Z,19.03
2023-05-10T22:24:21.554Z,19.04
2023-05-10T22:27:24.361Z,19.08
2023-05-10T22:30:27.155Z,19.08
2023-05-10T22:33:29.956Z,19.08
2023-05-10T22:36:32.860Z,19.10
2023-05-10T22:39:36.953Z,19.07
2023-05-10T22:42:39.809Z,19.09
2023-05-10T22:45:42.640Z,19.45
2023-05-10T22:48:45.460Z,19.21
2023-05-10T22:51:48.332Z,19.20
2023-05-10T22:54:52.477Z,19.18
2023-05-10T22:57:55.460Z,19.21
2023-05-10T23:00:58.214Z,19.20
2023-05-10T23:04:06.979Z,19.22
2023-05-10T23:07:09.819Z,19.20
2023-05-10T23:10:14.055Z,19.17
2023-05-10T23:13:16.851Z,19.20
2023-05-10T23:16:19.640Z,19.22
2023-05-10T23:19:22.434Z,19.21
2023-05-10T23:22:25.147Z,19.24
2023-05-10T23:25:29.257Z,19.22
2023-05-10T23:28:32.031Z,19.18
2023-05-10T23:31:34.810Z,19.17
2023-05-10T23:34:37.686Z,19.15
2023-05-10T23:37:42.103Z,19.17
2023-05-10T23:40:48.535Z,19.21
2023-05-10T23:43:51.459Z,19.20
2023-05-10T23:46:54.279Z,19.20
2023-05-10T23:49:57.107Z,19.23
2023-05-10T23:52:59.940Z,19.20
2023-05-10T23:56:04.339Z,19.19
2023-05-10T23:59:07.137Z,19.22
